Aviation Digital Data Service (ADDS)

Output produced by METARs form (2316 UTC 20 October 2017)
found at http://aviationweather.gov/adds/metars/
 
KACK 201730Z 2018/2118 32009G18KT P6SM SKC 
     FM202200 32009KT P6SM SKC 
     FM210500 35090KT P6SM SKC 
     FM211400 04004KT P6SM SKC